sensor_id;sensor_type;location;lat;lon;timestamp;P1;durP1;ratioP1;P2;durP2;ratioP2
7545;SDS011;3814;51.454;12.616;2023-02-18T00:01:51;3.03;;;0.70;;
7545;SDS011;3814;51.454;12.616;2023-02-18T00:04:16;3.10;;;0.60;;
7545;SDS011;3814;51.454;12.616;2023-02-18T00:06:41;4.32;;;0.60;;
7545;SDS011;3814;51.454;12.616;2023-02-18T00:09:07;3.22;;;0.63;;
7545;SDS011;3814;51.454;12.616;2023-02-18T00:11:33;3.40;;;0.52;;
7545;SDS011;3814;51.454;12.616;2023-02-18T00:14:00;1.88;;;0.52;;
7545;SDS011;3814;51.454;12.616;2023-02-18T00:16:27;2.85;;;0.80;;
7545;SDS011;3814;51.454;12.616;2023-02-18T00:18:56;3.42;;;0.45;;
7545;SDS011;3814;51.454;12.616;2023-02-18T00:21:23;1.80;;;0.50;;
7545;SDS011;3814;51.454;12.616;2023-02-18T00:23:49;1.98;;;0.60;;
7545;SDS011;3814;51.454;12.616;2023-02-18T00:26:15;2.55;;;0.60;;
7545;SDS011;3814;51.454;12.616;2023-02-18T00:28:41;1.65;;;0.60;;
7545;SDS011;3814;51.454;12.616;2023-02-18T00:31:17;3.13;;;0.70;;
7545;SDS011;3814;51.454;12.616;2023-02-18T00:33:44;1.75;;;0.50;;
7545;SDS011;3814;51.454;12.616;2023-02-18T00:36:10;1.88;;;0.50;;
7545;SDS011;3814;51.454;12.616;2023-02-18T00:38:38;2.28;;;0.50;;
7545;SDS011;3814;51.454;12.616;2023-02-18T00:41:03;2.28;;;0.50;;
7545;SDS011;3814;51.454;12.616;2023-02-18T00:43:29;2.85;;;0.60;;
7545;SDS011;3814;51.454;12.616;2023-02-18T00:45:54;3.05;;;0.55;;
7545;SDS011;3814;51.454;12.616;2023-02-18T00:48:20;5.25;;;0.60;;
7545;SDS011;3814;51.454;12.616;2023-02-18T00:50:45;3.40;;;0.70;;
7545;SDS011;3814;51.454;12.616;2023-02-18T00:53:11;3.42;;;0.60;;
7545;SDS011;3814;51.454;12.616;2023-02-18T00:55:40;3.65;;;0.80;;
7545;SDS011;3814;51.454;12.616;2023-02-18T00:58:06;2.63;;;0.82;;
7545;SDS011;3814;51.454;12.616;2023-02-18T01:00:32;3.95;;;0.60;;
7545;SDS011;3814;51.454;12.616;2023-02-18T01:02:57;4.13;;;0.60;;
7545;SDS011;3814;51.454;12.616;2023-02-18T01:05:22;3.28;;;0.70;;
7545;SDS011;3814;51.454;12.616;2023-02-18T01:07:48;1.90;;;0.68;;
7545;SDS011;3814;51.454;12.616;2023-02-18T01:10:13;1.58;;;0.60;;
7545;SDS011;3814;51.454;12.616;2023-02-18T01:12:39;2.72;;;0.55;;
7545;SDS011;3814;51.454;12.616;2023-02-18T01:15:04;5.15;;;0.50;;
7545;SDS011;3814;51.454;12.616;2023-02-18T01:17:31;3.25;;;0.65;;
7545;SDS011;3814;51.454;12.616;2023-02-18T01:19:56;2.95;;;0.57;;
7545;SDS011;3814;51.454;12.616;2023-02-18T01:22:21;4.20;;;0.70;;
7545;SDS011;3814;51.454;12.616;2023-02-18T01:24:47;4.05;;;0.70;;
7545;SDS011;3814;51.454;12.616;2023-02-18T01:27:12;2.95;;;0.75;;
7545;SDS011;3814;51.454;12.616;2023-02-18T01:29:38;4.55;;;0.70;;
7545;SDS011;3814;51.454;12.616;2023-02-18T01:32:03;1.30;;;0.52;;
7545;SDS011;3814;51.454;12.616;2023-02-18T01:34:28;3.72;;;0.60;;
7545;SDS011;3814;51.454;12.616;2023-02-18T01:36:54;3.25;;;0.68;;
7545;SDS011;3814;51.454;12.616;2023-02-18T01:39:19;2.83;;;0.60;;
7545;SDS011;3814;51.454;12.616;2023-02-18T01:41:44;3.25;;;0.90;;
7545;SDS011;3814;51.454;12.616;2023-02-18T01:44:14;2.92;;;0.63;;
7545;SDS011;3814;51.454;12.616;2023-02-18T01:46:41;1.58;;;0.65;;
7545;SDS011;3814;51.454;12.616;2023-02-18T01:49:07;4.13;;;0.73;;
7545;SDS011;3814;51.454;12.616;2023-02-18T01:51:34;3.85;;;0.70;;
7545;SDS011;3814;51.454;12.616;2023-02-18T01:56:47;2.05;;;0.60;;
7545;SDS011;3814;51.454;12.616;2023-02-18T01:59:17;4.00;;;0.80;;
7545;SDS011;3814;51.454;12.616;2023-02-18T02:01:50;2.28;;;0.70;;
7545;SDS011;3814;51.454;12.616;2023-02-18T02:04:15;4.35;;;0.73;;
7545;SDS011;3814;51.454;12.616;2023-02-18T02:06:42;3.92;;;0.90;;
7545;SDS011;3814;51.454;12.616;2023-02-18T02:09:09;2.67;;;0.70;;
7545;SDS011;3814;51.454;12.616;2023-02-18T02:11:58;3.45;;;0.60;;
7545;SDS011;3814;51.454;12.616;2023-02-18T02:14:42;2.95;;;0.70;;
7545;SDS011;3814;51.454;12.616;2023-02-18T02:17:27;2.40;;;0.63;;
7545;SDS011;3814;51.454;12.616;2023-02-18T02:20:22;3.13;;;0.57;;
7545;SDS011;3814;51.454;12.616;2023-02-18T02:28:31;3.03;;;1.00;;
7545;SDS011;3814;51.454;12.616;2023-02-18T02:31:39;3.03;;;0.93;;
7545;SDS011;3814;51.454;12.616;2023-02-18T02:37:22;4.28;;;1.20;;
7545;SDS011;3814;51.454;12.616;2023-02-18T02:40:19;4.60;;;1.00;;
7545;SDS011;3814;51.454;12.616;2023-02-18T02:42:52;2.63;;;0.70;;
7545;SDS011;3814;51.454;12.616;2023-02-18T02:48:42;5.78;;;1.25;;
7545;SDS011;3814;51.454;12.616;2023-02-18T02:51:15;4.57;;;1.00;;
7545;SDS011;3814;51.454;12.616;2023-02-18T02:53:44;8.18;;;1.27;;
7545;SDS011;3814;51.454;12.616;2023-02-18T02:56:16;6.18;;;1.10;;
7545;SDS011;3814;51.454;12.616;2023-02-18T02:58:44;7.15;;;1.38;;
7545;SDS011;3814;51.454;12.616;2023-02-18T03:04:12;5.38;;;1.10;;
7545;SDS011;3814;51.454;12.616;2023-02-18T03:09:16;3.90;;;0.90;;
7545;SDS011;3814;51.454;12.616;2023-02-18T03:11:58;3.20;;;0.80;;
7545;SDS011;3814;51.454;12.616;2023-02-18T03:15:14;6.20;;;1.25;;
7545;SDS011;3814;51.454;12.616;2023-02-18T03:17:30;6.20;;;1.30;;
7545;SDS011;3814;51.454;12.616;2023-02-18T03:20:09;5.20;;;1.20;;
7545;SDS011;3814;51.454;12.616;2023-02-18T03:22:40;3.90;;;1.00;;
7545;SDS011;3814;51.454;12.616;2023-02-18T03:25:08;7.20;;;1.08;;
7545;SDS011;3814;51.454;12.616;2023-02-18T03:27:45;3.17;;;1.02;;
7545;SDS011;3814;51.454;12.616;2023-02-18T03:30:15;4.15;;;0.98;;
7545;SDS011;3814;51.454;12.616;2023-02-18T03:32:43;4.00;;;0.90;;
7545;SDS011;3814;51.454;12.616;2023-02-18T03:35:10;5.75;;;1.10;;
7545;SDS011;3814;51.454;12.616;2023-02-18T03:37:38;5.70;;;1.30;;
7545;SDS011;3814;51.454;12.616;2023-02-18T03:40:07;6.38;;;1.10;;
7545;SDS011;3814;51.454;12.616;2023-02-18T03:42:33;4.75;;;1.33;;
7545;SDS011;3814;51.454;12.616;2023-02-18T03:44:59;8.15;;;1.27;;
7545;SDS011;3814;51.454;12.616;2023-02-18T03:47:24;4.82;;;1.60;;
7545;SDS011;3814;51.454;12.616;2023-02-18T03:49:49;4.85;;;1.10;;
7545;SDS011;3814;51.454;12.616;2023-02-18T03:52:15;6.30;;;1.00;;
7545;SDS011;3814;51.454;12.616;2023-02-18T03:54:40;5.75;;;1.30;;
7545;SDS011;3814;51.454;12.616;2023-02-18T03:57:06;7.63;;;1.70;;
7545;SDS011;3814;51.454;12.616;2023-02-18T03:59:31;3.42;;;1.10;;
7545;SDS011;3814;51.454;12.616;2023-02-18T04:01:57;4.38;;;1.40;;
7545;SDS011;3814;51.454;12.616;2023-02-18T04:04:22;7.47;;;1.70;;
7545;SDS011;3814;51.454;12.616;2023-02-18T04:06:47;5.50;;;1.30;;
7545;SDS011;3814;51.454;12.616;2023-02-18T04:09:13;4.40;;;1.30;;
7545;SDS011;3814;51.454;12.616;2023-02-18T04:11:39;5.35;;;1.27;;
7545;SDS011;3814;51.454;12.616;2023-02-18T04:14:04;7.07;;;1.60;;
7545;SDS011;3814;51.454;12.616;2023-02-18T04:16:30;4.93;;;1.20;;
7545;SDS011;3814;51.454;12.616;2023-02-18T04:18:55;8.20;;;1.67;;
7545;SDS011;3814;51.454;12.616;2023-02-18T04:21:21;4.60;;;1.70;;
7545;SDS011;3814;51.454;12.616;2023-02-18T04:23:46;6.88;;;1.70;;
7545;SDS011;3814;51.454;12.616;2023-02-18T04:26:11;5.90;;;1.75;;
7545;SDS011;3814;51.454;12.616;2023-02-18T04:28:36;9.10;;;1.50;;
7545;SDS011;3814;51.454;12.616;2023-02-18T04:31:02;7.47;;;1.80;;
7545;SDS011;3814;51.454;12.616;2023-02-18T04:33:27;8.02;;;1.90;;
7545;SDS011;3814;51.454;12.616;2023-02-18T04:35:52;8.82;;;1.60;;
7545;SDS011;3814;51.454;12.616;2023-02-18T04:38:18;6.57;;;1.70;;
7545;SDS011;3814;51.454;12.616;2023-02-18T04:40:43;9.25;;;1.80;;
7545;SDS011;3814;51.454;12.616;2023-02-18T04:43:08;6.65;;;1.60;;
7545;SDS011;3814;51.454;12.616;2023-02-18T04:45:34;7.13;;;1.38;;
7545;SDS011;3814;51.454;12.616;2023-02-18T04:47:59;6.78;;;1.60;;
7545;SDS011;3814;51.454;12.616;2023-02-18T04:50:24;9.35;;;1.70;;
7545;SDS011;3814;51.454;12.616;2023-02-18T04:52:50;6.45;;;1.60;;
7545;SDS011;3814;51.454;12.616;2023-02-18T04:55:15;7.25;;;1.73;;
7545;SDS011;3814;51.454;12.616;2023-02-18T04:57:40;5.60;;;1.33;;
7545;SDS011;3814;51.454;12.616;2023-02-18T05:00:06;5.43;;;1.42;;
7545;SDS011;3814;51.454;12.616;2023-02-18T05:02:33;6.68;;;1.80;;
7545;SDS011;3814;51.454;12.616;2023-02-18T05:04:58;6.70;;;1.70;;
7545;SDS011;3814;51.454;12.616;2023-02-18T05:07:23;5.13;;;1.67;;
7545;SDS011;3814;51.454;12.616;2023-02-18T05:09:49;7.25;;;1.67;;
7545;SDS011;3814;51.454;12.616;2023-02-18T05:12:14;7.80;;;1.85;;
7545;SDS011;3814;51.454;12.616;2023-02-18T05:14:39;7.40;;;1.77;;
7545;SDS011;3814;51.454;12.616;2023-02-18T05:17:05;6.82;;;1.65;;
7545;SDS011;3814;51.454;12.616;2023-02-18T05:19:30;10.35;;;1.80;;
7545;SDS011;3814;51.454;12.616;2023-02-18T05:21:55;6.25;;;1.80;;
7545;SDS011;3814;51.454;12.616;2023-02-18T05:24:20;8.88;;;1.95;;
7545;SDS011;3814;51.454;12.616;2023-02-18T05:26:46;7.25;;;1.52;;
7545;SDS011;3814;51.454;12.616;2023-02-18T05:29:11;7.97;;;2.00;;
7545;SDS011;3814;51.454;12.616;2023-02-18T05:31:37;6.40;;;1.60;;
7545;SDS011;3814;51.454;12.616;2023-02-18T05:34:02;7.63;;;2.10;;
7545;SDS011;3814;51.454;12.616;2023-02-18T05:36:27;6.18;;;2.10;;
7545;SDS011;3814;51.454;12.616;2023-02-18T05:38:53;7.90;;;2.75;;
7545;SDS011;3814;51.454;12.616;2023-02-18T05:41:18;11.02;;;2.70;;
7545;SDS011;3814;51.454;12.616;2023-02-18T05:43:44;8.57;;;2.67;;
7545;SDS011;3814;51.454;12.616;2023-02-18T05:46:28;7.35;;;2.58;;
7545;SDS011;3814;51.454;12.616;2023-02-18T05:48:53;11.95;;;3.28;;
7545;SDS011;3814;51.454;12.616;2023-02-18T05:51:18;9.90;;;3.03;;
7545;SDS011;3814;51.454;12.616;2023-02-18T05:53:44;8.55;;;2.95;;
7545;SDS011;3814;51.454;12.616;2023-02-18T05:56:09;9.75;;;3.00;;
7545;SDS011;3814;51.454;12.616;2023-02-18T05:58:34;8.60;;;3.22;;
7545;SDS011;3814;51.454;12.616;2023-02-18T06:00:59;9.88;;;3.42;;
7545;SDS011;3814;51.454;12.616;2023-02-18T06:03:25;10.55;;;3.60;;
7545;SDS011;3814;51.454;12.616;2023-02-18T06:05:50;11.63;;;3.33;;
7545;SDS011;3814;51.454;12.616;2023-02-18T06:08:16;8.73;;;4.07;;
7545;SDS011;3814;51.454;12.616;2023-02-18T06:10:41;11.63;;;3.67;;
7545;SDS011;3814;51.454;12.616;2023-02-18T06:13:07;10.30;;;4.07;;
7545;SDS011;3814;51.454;12.616;2023-02-18T06:15:32;10.27;;;3.78;;
7545;SDS011;3814;51.454;12.616;2023-02-18T06:17:57;15.85;;;4.80;;
7545;SDS011;3814;51.454;12.616;2023-02-18T06:20:23;13.48;;;3.80;;
7545;SDS011;3814;51.454;12.616;2023-02-18T06:22:48;10.35;;;4.18;;
7545;SDS011;3814;51.454;12.616;2023-02-18T06:25:13;14.80;;;4.40;;
7545;SDS011;3814;51.454;12.616;2023-02-18T06:27:39;15.10;;;4.95;;
7545;SDS011;3814;51.454;12.616;2023-02-18T06:30:04;12.05;;;4.25;;
7545;SDS011;3814;51.454;12.616;2023-02-18T06:32:30;13.52;;;4.95;;
7545;SDS011;3814;51.454;12.616;2023-02-18T06:34:55;13.43;;;5.00;;
7545;SDS011;3814;51.454;12.616;2023-02-18T06:37:20;14.27;;;5.00;;
7545;SDS011;3814;51.454;12.616;2023-02-18T06:39:46;14.93;;;5.30;;
7545;SDS011;3814;51.454;12.616;2023-02-18T06:42:11;15.23;;;4.90;;
7545;SDS011;3814;51.454;12.616;2023-02-18T06:44:36;14.77;;;5.75;;
7545;SDS011;3814;51.454;12.616;2023-02-18T06:47:02;12.38;;;4.88;;
7545;SDS011;3814;51.454;12.616;2023-02-18T06:49:27;16.13;;;5.72;;
7545;SDS011;3814;51.454;12.616;2023-02-18T06:51:52;13.48;;;5.18;;
7545;SDS011;3814;51.454;12.616;2023-02-18T06:54:18;13.68;;;5.47;;
7545;SDS011;3814;51.454;12.616;2023-02-18T06:56:43;12.38;;;5.15;;
7545;SDS011;3814;51.454;12.616;2023-02-18T06:59:08;16.10;;;4.90;;
7545;SDS011;3814;51.454;12.616;2023-02-18T07:01:33;15.60;;;5.88;;
7545;SDS011;3814;51.454;12.616;2023-02-18T07:03:59;15.00;;;5.93;;
7545;SDS011;3814;51.454;12.616;2023-02-18T07:06:24;13.50;;;5.85;;
7545;SDS011;3814;51.454;12.616;2023-02-18T07:08:49;14.07;;;5.50;;
7545;SDS011;3814;51.454;12.616;2023-02-18T07:11:15;16.00;;;6.00;;
7545;SDS011;3814;51.454;12.616;2023-02-18T07:13:40;13.38;;;5.70;;
7545;SDS011;3814;51.454;12.616;2023-02-18T07:16:05;15.57;;;6.57;;
7545;SDS011;3814;51.454;12.616;2023-02-18T07:18:31;13.95;;;6.03;;
7545;SDS011;3814;51.454;12.616;2023-02-18T07:20:56;14.52;;;5.70;;
7545;SDS011;3814;51.454;12.616;2023-02-18T07:23:21;14.65;;;5.65;;
7545;SDS011;3814;51.454;12.616;2023-02-18T07:25:47;16.38;;;6.10;;
7545;SDS011;3814;51.454;12.616;2023-02-18T07:28:12;14.73;;;5.88;;
7545;SDS011;3814;51.454;12.616;2023-02-18T07:30:37;13.85;;;5.32;;
7545;SDS011;3814;51.454;12.616;2023-02-18T07:33:03;15.30;;;5.43;;
7545;SDS011;3814;51.454;12.616;2023-02-18T07:35:28;14.18;;;5.90;;
7545;SDS011;3814;51.454;12.616;2023-02-18T07:37:53;14.65;;;5.78;;
7545;SDS011;3814;51.454;12.616;2023-02-18T07:40:19;17.25;;;5.72;;
7545;SDS011;3814;51.454;12.616;2023-02-18T07:42:45;15.43;;;5.60;;
7545;SDS011;3814;51.454;12.616;2023-02-18T07:45:11;14.95;;;5.82;;
7545;SDS011;3814;51.454;12.616;2023-02-18T07:47:36;16.58;;;6.15;;
7545;SDS011;3814;51.454;12.616;2023-02-18T07:50:02;17.27;;;6.80;;
7545;SDS011;3814;51.454;12.616;2023-02-18T07:52:28;17.27;;;6.55;;
7545;SDS011;3814;51.454;12.616;2023-02-18T07:54:53;15.25;;;6.20;;
7545;SDS011;3814;51.454;12.616;2023-02-18T07:57:19;17.77;;;6.65;;
7545;SDS011;3814;51.454;12.616;2023-02-18T07:59:44;18.63;;;6.35;;
7545;SDS011;3814;51.454;12.616;2023-02-18T08:02:16;16.48;;;6.45;;
7545;SDS011;3814;51.454;12.616;2023-02-18T08:04:43;18.52;;;7.25;;
7545;SDS011;3814;51.454;12.616;2023-02-18T08:07:11;18.35;;;7.15;;
7545;SDS011;3814;51.454;12.616;2023-02-18T08:09:37;41.97;;;13.98;;
7545;SDS011;3814;51.454;12.616;2023-02-18T08:12:03;60.83;;;18.45;;
7545;SDS011;3814;51.454;12.616;2023-02-18T08:14:28;58.25;;;19.20;;
7545;SDS011;3814;51.454;12.616;2023-02-18T08:16:53;44.65;;;16.25;;
7545;SDS011;3814;51.454;12.616;2023-02-18T08:19:19;23.30;;;8.82;;
7545;SDS011;3814;51.454;12.616;2023-02-18T08:21:44;23.35;;;7.85;;
7545;SDS011;3814;51.454;12.616;2023-02-18T08:24:10;21.95;;;7.43;;
7545;SDS011;3814;51.454;12.616;2023-02-18T08:26:35;19.70;;;7.47;;
7545;SDS011;3814;51.454;12.616;2023-02-18T08:29:00;18.40;;;6.82;;
7545;SDS011;3814;51.454;12.616;2023-02-18T08:31:26;16.73;;;7.03;;
7545;SDS011;3814;51.454;12.616;2023-02-18T08:33:53;16.38;;;6.55;;
7545;SDS011;3814;51.454;12.616;2023-02-18T08:36:19;16.50;;;6.63;;
7545;SDS011;3814;51.454;12.616;2023-02-18T08:38:45;19.27;;;6.18;;
7545;SDS011;3814;51.454;12.616;2023-02-18T08:41:11;18.38;;;6.57;;
7545;SDS011;3814;51.454;12.616;2023-02-18T08:43:38;17.33;;;6.50;;
7545;SDS011;3814;51.454;12.616;2023-02-18T08:46:03;17.42;;;6.40;;
7545;SDS011;3814;51.454;12.616;2023-02-18T08:48:29;15.60;;;5.60;;
7545;SDS011;3814;51.454;12.616;2023-02-18T08:50:54;15.45;;;5.65;;
7545;SDS011;3814;51.454;12.616;2023-02-18T08:53:20;16.15;;;5.78;;
7545;SDS011;3814;51.454;12.616;2023-02-18T08:55:45;17.98;;;5.95;;
7545;SDS011;3814;51.454;12.616;2023-02-18T08:58:11;14.65;;;6.10;;
7545;SDS011;3814;51.454;12.616;2023-02-18T09:00:37;11.70;;;5.10;;
7545;SDS011;3814;51.454;12.616;2023-02-18T09:03:03;12.05;;;5.00;;
7545;SDS011;3814;51.454;12.616;2023-02-18T09:05:28;10.52;;;4.35;;
7545;SDS011;3814;51.454;12.616;2023-02-18T09:07:53;10.60;;;4.80;;
7545;SDS011;3814;51.454;12.616;2023-02-18T09:10:19;10.18;;;3.90;;
7545;SDS011;3814;51.454;12.616;2023-02-18T09:12:44;12.20;;;6.68;;
7545;SDS011;3814;51.454;12.616;2023-02-18T09:15:10;7.45;;;3.90;;
7545;SDS011;3814;51.454;12.616;2023-02-18T09:17:35;7.32;;;3.53;;
7545;SDS011;3814;51.454;12.616;2023-02-18T09:20:00;5.72;;;2.50;;
7545;SDS011;3814;51.454;12.616;2023-02-18T09:22:27;5.68;;;2.47;;
7545;SDS011;3814;51.454;12.616;2023-02-18T09:24:53;3.90;;;2.05;;
7545;SDS011;3814;51.454;12.616;2023-02-18T09:27:19;3.67;;;2.03;;
7545;SDS011;3814;51.454;12.616;2023-02-18T09:29:45;2.80;;;1.67;;
7545;SDS011;3814;51.454;12.616;2023-02-18T09:32:10;2.67;;;1.63;;
7545;SDS011;3814;51.454;12.616;2023-02-18T09:34:36;2.90;;;1.65;;
7545;SDS011;3814;51.454;12.616;2023-02-18T09:37:02;2.25;;;1.40;;
7545;SDS011;3814;51.454;12.616;2023-02-18T09:39:27;3.88;;;1.70;;
7545;SDS011;3814;51.454;12.616;2023-02-18T09:42:03;2.05;;;1.38;;
7545;SDS011;3814;51.454;12.616;2023-02-18T09:44:31;2.00;;;1.30;;
7545;SDS011;3814;51.454;12.616;2023-02-18T09:47:04;1.75;;;0.93;;
7545;SDS011;3814;51.454;12.616;2023-02-18T09:49:50;2.70;;;1.10;;
7545;SDS011;3814;51.454;12.616;2023-02-18T09:52:27;2.88;;;0.90;;
7545;SDS011;3814;51.454;12.616;2023-02-18T09:54:55;1.60;;;0.90;;
7545;SDS011;3814;51.454;12.616;2023-02-18T09:57:35;1.75;;;0.90;;
7545;SDS011;3814;51.454;12.616;2023-02-18T10:00:06;1.20;;;0.70;;
7545;SDS011;3814;51.454;12.616;2023-02-18T10:02:38;1.10;;;0.70;;
7545;SDS011;3814;51.454;12.616;2023-02-18T10:05:06;1.42;;;0.80;;
7545;SDS011;3814;51.454;12.616;2023-02-18T10:07:38;1.63;;;0.82;;
7545;SDS011;3814;51.454;12.616;2023-02-18T10:10:15;0.95;;;0.80;;
7545;SDS011;3814;51.454;12.616;2023-02-18T10:12:46;1.85;;;0.70;;
7545;SDS011;3814;51.454;12.616;2023-02-18T10:15:16;1.75;;;0.90;;
7545;SDS011;3814;51.454;12.616;2023-02-18T10:17:45;0.95;;;0.70;;
7545;SDS011;3814;51.454;12.616;2023-02-18T10:20:14;1.63;;;0.90;;
7545;SDS011;3814;51.454;12.616;2023-02-18T10:22:41;0.70;;;0.50;;
7545;SDS011;3814;51.454;12.616;2023-02-18T10:25:06;0.98;;;0.60;;
7545;SDS011;3814;51.454;12.616;2023-02-18T10:27:34;0.50;;;0.50;;
7545;SDS011;3814;51.454;12.616;2023-02-18T10:30:24;0.57;;;0.50;;
7545;SDS011;3814;51.454;12.616;2023-02-18T10:33:05;0.98;;;0.60;;
7545;SDS011;3814;51.454;12.616;2023-02-18T10:35:44;0.50;;;0.50;;
7545;SDS011;3814;51.454;12.616;2023-02-18T10:41:28;0.40;;;0.40;;
7545;SDS011;3814;51.454;12.616;2023-02-18T10:44:18;0.32;;;0.30;;
7545;SDS011;3814;51.454;12.616;2023-02-18T10:47:01;1.10;;;0.57;;
7545;SDS011;3814;51.454;12.616;2023-02-18T10:49:48;0.50;;;0.40;;
7545;SDS011;3814;51.454;12.616;2023-02-18T10:52:15;0.40;;;0.40;;
7545;SDS011;3814;51.454;12.616;2023-02-18T10:57:29;0.40;;;0.40;;
7545;SDS011;3814;51.454;12.616;2023-02-18T10:59:56;0.52;;;0.43;;
7545;SDS011;3814;51.454;12.616;2023-02-18T11:02:35;0.63;;;0.40;;
7545;SDS011;3814;51.454;12.616;2023-02-18T11:05:05;1.02;;;0.30;;
7545;SDS011;3814;51.454;12.616;2023-02-18T11:07:40;0.30;;;0.30;;
7545;SDS011;3814;51.454;12.616;2023-02-18T11:10:09;0.40;;;0.40;;
7545;SDS011;3814;51.454;12.616;2023-02-18T11:12:45;0.45;;;0.40;;
7545;SDS011;3814;51.454;12.616;2023-02-18T11:15:22;0.30;;;0.30;;
7545;SDS011;3814;51.454;12.616;2023-02-18T11:17:50;1.27;;;0.30;;
7545;SDS011;3814;51.454;12.616;2023-02-18T11:20:28;0.30;;;0.30;;
7545;SDS011;3814;51.454;12.616;2023-02-18T11:22:59;0.57;;;0.55;;
7545;SDS011;3814;51.454;12.616;2023-02-18T11:25:41;1.40;;;0.40;;
7545;SDS011;3814;51.454;12.616;2023-02-18T11:30:47;1.75;;;0.60;;
7545;SDS011;3814;51.454;12.616;2023-02-18T11:33:22;0.65;;;0.40;;
7545;SDS011;3814;51.454;12.616;2023-02-18T11:35:51;0.60;;;0.30;;
7545;SDS011;3814;51.454;12.616;2023-02-18T11:40:56;0.50;;;0.50;;
7545;SDS011;3814;51.454;12.616;2023-02-18T11:43:28;0.98;;;0.40;;
7545;SDS011;3814;51.454;12.616;2023-02-18T11:46:12;0.40;;;0.40;;
7545;SDS011;3814;51.454;12.616;2023-02-18T11:48:41;0.40;;;0.40;;
7545;SDS011;3814;51.454;12.616;2023-02-18T11:51:16;0.40;;;0.35;;
7545;SDS011;3814;51.454;12.616;2023-02-18T11:53:53;0.40;;;0.40;;
7545;SDS011;3814;51.454;12.616;2023-02-18T11:56:28;0.40;;;0.40;;
7545;SDS011;3814;51.454;12.616;2023-02-18T11:59:04;0.45;;;0.40;;
7545;SDS011;3814;51.454;12.616;2023-02-18T12:04:13;0.40;;;0.40;;
7545;SDS011;3814;51.454;12.616;2023-02-18T12:14:55;0.38;;;0.38;;
7545;SDS011;3814;51.454;12.616;2023-02-18T12:21:25;1.20;;;0.40;;
7545;SDS011;3814;51.454;12.616;2023-02-18T12:26:23;0.40;;;0.40;;
7545;SDS011;3814;51.454;12.616;2023-02-18T12:31:41;0.90;;;0.40;;
7545;SDS011;3814;51.454;12.616;2023-02-18T13:05:06;2.25;;;0.60;;
7545;SDS011;3814;51.454;12.616;2023-02-18T13:13:39;0.90;;;0.52;;
7545;SDS011;3814;51.454;12.616;2023-02-18T13:16:13;1.35;;;0.50;;
7545;SDS011;3814;51.454;12.616;2023-02-18T13:18:44;0.60;;;0.50;;
7545;SDS011;3814;51.454;12.616;2023-02-18T13:21:14;0.40;;;0.40;;
7545;SDS011;3814;51.454;12.616;2023-02-18T13:26:25;0.63;;;0.40;;
7545;SDS011;3814;51.454;12.616;2023-02-18T13:34:34;1.90;;;0.40;;
7545;SDS011;3814;51.454;12.616;2023-02-18T13:37:10;0.95;;;0.50;;
7545;SDS011;3814;51.454;12.616;2023-02-18T13:40:03;0.90;;;0.50;;
7545;SDS011;3814;51.454;12.616;2023-02-18T13:45:01;1.38;;;0.80;;
7545;SDS011;3814;51.454;12.616;2023-02-18T13:47:45;2.67;;;0.68;;
7545;SDS011;3814;51.454;12.616;2023-02-18T13:50:13;1.42;;;0.82;;
7545;SDS011;3814;51.454;12.616;2023-02-18T13:52:40;2.42;;;0.75;;
7545;SDS011;3814;51.454;12.616;2023-02-18T13:55:15;0.93;;;0.60;;
7545;SDS011;3814;51.454;12.616;2023-02-18T13:57:44;1.67;;;0.80;;
7545;SDS011;3814;51.454;12.616;2023-02-18T14:00:54;1.30;;;0.80;;
7545;SDS011;3814;51.454;12.616;2023-02-18T14:03:01;2.28;;;1.00;;
7545;SDS011;3814;51.454;12.616;2023-02-18T14:05:44;2.55;;;1.00;;
7545;SDS011;3814;51.454;12.616;2023-02-18T14:08:10;5.28;;;2.40;;
7545;SDS011;3814;51.454;12.616;2023-02-18T14:10:40;4.35;;;1.60;;
7545;SDS011;3814;51.454;12.616;2023-02-18T14:13:19;4.20;;;1.65;;
7545;SDS011;3814;51.454;12.616;2023-02-18T14:15:54;2.78;;;1.10;;
7545;SDS011;3814;51.454;12.616;2023-02-18T14:18:25;2.10;;;1.10;;
7545;SDS011;3814;51.454;12.616;2023-02-18T14:28:42;1.75;;;0.60;;
7545;SDS011;3814;51.454;12.616;2023-02-18T14:36:49;1.10;;;0.60;;
7545;SDS011;3814;51.454;12.616;2023-02-18T14:50:12;1.35;;;0.80;;
7545;SDS011;3814;51.454;12.616;2023-02-18T14:52:49;2.35;;;0.80;;
7545;SDS011;3814;51.454;12.616;2023-02-18T14:58:24;0.98;;;0.70;;
7545;SDS011;3814;51.454;12.616;2023-02-18T15:00:53;1.00;;;0.60;;
7545;SDS011;3814;51.454;12.616;2023-02-18T15:03:19;2.70;;;0.80;;
7545;SDS011;3814;51.454;12.616;2023-02-18T15:05:46;1.48;;;0.90;;
7545;SDS011;3814;51.454;12.616;2023-02-18T15:08:24;1.60;;;0.60;;
7545;SDS011;3814;51.454;12.616;2023-02-18T15:11:00;1.02;;;0.70;;
7545;SDS011;3814;51.454;12.616;2023-02-18T15:13:31;1.00;;;0.80;;
7545;SDS011;3814;51.454;12.616;2023-02-18T15:16:00;2.05;;;0.90;;
7545;SDS011;3814;51.454;12.616;2023-02-18T15:18:37;1.33;;;0.70;;
7545;SDS011;3814;51.454;12.616;2023-02-18T15:21:05;1.15;;;0.70;;
7545;SDS011;3814;51.454;12.616;2023-02-18T15:23:36;1.33;;;0.80;;
7545;SDS011;3814;51.454;12.616;2023-02-18T15:26:03;2.20;;;0.80;;
7545;SDS011;3814;51.454;12.616;2023-02-18T15:28:31;1.35;;;0.85;;
7545;SDS011;3814;51.454;12.616;2023-02-18T15:30:57;2.53;;;0.90;;
7545;SDS011;3814;51.454;12.616;2023-02-18T15:33:24;3.58;;;0.90;;
7545;SDS011;3814;51.454;12.616;2023-02-18T15:36:02;3.72;;;1.00;;
7545;SDS011;3814;51.454;12.616;2023-02-18T15:38:29;2.60;;;1.75;;
7545;SDS011;3814;51.454;12.616;2023-02-18T15:41:09;1.27;;;0.82;;
7545;SDS011;3814;51.454;12.616;2023-02-18T15:43:35;1.98;;;0.80;;
7545;SDS011;3814;51.454;12.616;2023-02-18T15:46:05;1.25;;;0.80;;
7545;SDS011;3814;51.454;12.616;2023-02-18T15:48:45;1.60;;;0.90;;
7545;SDS011;3814;51.454;12.616;2023-02-18T15:51:13;1.75;;;0.85;;
7545;SDS011;3814;51.454;12.616;2023-02-18T15:53:44;2.65;;;1.48;;
7545;SDS011;3814;51.454;12.616;2023-02-18T15:56:15;2.90;;;1.13;;
7545;SDS011;3814;51.454;12.616;2023-02-18T15:58:44;4.22;;;1.63;;
7545;SDS011;3814;51.454;12.616;2023-02-18T16:01:26;1.75;;;1.05;;
7545;SDS011;3814;51.454;12.616;2023-02-18T16:04:10;2.30;;;1.15;;
7545;SDS011;3814;51.454;12.616;2023-02-18T16:06:43;1.60;;;0.85;;
7545;SDS011;3814;51.454;12.616;2023-02-18T16:09:14;1.63;;;0.80;;
7545;SDS011;3814;51.454;12.616;2023-02-18T16:22:52;1.40;;;0.80;;
7545;SDS011;3814;51.454;12.616;2023-02-18T16:25:22;2.10;;;0.70;;
7545;SDS011;3814;51.454;12.616;2023-02-18T16:28:24;2.35;;;0.80;;
7545;SDS011;3814;51.454;12.616;2023-02-18T16:30:55;2.50;;;0.90;;
7545;SDS011;3814;51.454;12.616;2023-02-18T16:33:20;1.15;;;0.70;;
7545;SDS011;3814;51.454;12.616;2023-02-18T16:35:46;1.58;;;0.70;;
7545;SDS011;3814;51.454;12.616;2023-02-18T16:38:16;1.15;;;0.80;;
7545;SDS011;3814;51.454;12.616;2023-02-18T16:40:49;0.80;;;0.70;;
7545;SDS011;3814;51.454;12.616;2023-02-18T16:43:29;1.27;;;0.90;;
7545;SDS011;3814;51.454;12.616;2023-02-18T16:46:04;1.17;;;0.70;;
7545;SDS011;3814;51.454;12.616;2023-02-18T16:48:51;2.05;;;0.80;;
7545;SDS011;3814;51.454;12.616;2023-02-18T16:51:20;2.30;;;0.80;;
7545;SDS011;3814;51.454;12.616;2023-02-18T16:53:48;1.05;;;0.75;;
7545;SDS011;3814;51.454;12.616;2023-02-18T16:56:17;1.20;;;0.70;;
7545;SDS011;3814;51.454;12.616;2023-02-18T16:58:44;1.27;;;0.80;;
7545;SDS011;3814;51.454;12.616;2023-02-18T17:01:20;2.75;;;1.05;;
7545;SDS011;3814;51.454;12.616;2023-02-18T17:03:47;1.25;;;0.80;;
7545;SDS011;3814;51.454;12.616;2023-02-18T17:06:13;2.60;;;1.00;;
7545;SDS011;3814;51.454;12.616;2023-02-18T17:08:39;1.88;;;1.25;;
7545;SDS011;3814;51.454;12.616;2023-02-18T17:11:04;1.52;;;1.08;;
7545;SDS011;3814;51.454;12.616;2023-02-18T17:13:29;3.03;;;1.10;;
7545;SDS011;3814;51.454;12.616;2023-02-18T17:15:56;2.70;;;1.30;;
7545;SDS011;3814;51.454;12.616;2023-02-18T17:18:22;2.58;;;1.48;;
7545;SDS011;3814;51.454;12.616;2023-02-18T17:20:48;2.17;;;1.00;;
7545;SDS011;3814;51.454;12.616;2023-02-18T17:23:14;1.98;;;1.27;;
7545;SDS011;3814;51.454;12.616;2023-02-18T17:25:40;3.15;;;1.10;;
7545;SDS011;3814;51.454;12.616;2023-02-18T17:36:14;2.08;;;1.30;;